Pelican Rapids, Canada
Current Conditions -  °F | °C
As of 2:00 AM on Sunday 21 Dec 2014 (Local Time) from CYQD Reporting Station
Haze Haze  
Wind Chill:   Ceiling: 300
Heat Index: 19°   Visibility: 1mi
Dew Point: 19°   Wind: 8mph
Humidity: 100%   Direction: 110°ESE
Pressure: 29.68"   Gusts: NA
Location:  52.62°N, 100.73°W
Report Text: CYQD 210800Z 11007KT 1SM BR VV003 M07/M07 A2968 RMK FG8 SLP069
Loading
Personal Weather Stations






























Interactive Weather Map New forecast layout! Learn more

10-Day Weather Forecast

Advertisements
Track Severe Weather on mobile